Time;durP1;ratioP1;P1;durP2;ratioP2;P2;SDS_P1;SDS_P2;PMS_P1;PMS_P2;Temp;Humidity;BMP_temperature;BMP_pressure;BME280_temperature;BME280_humidity;BME280_pressure;Samples;Min_cycle;Max_cycle;Signal;HPM_P1;HPM_P2
2022/04/23 00:00:34;;;;;;;5.10;3.65;;;22.00;36.10;;;;;;5121008;28;20027;-40
2022/04/23 00:03:01;;;;;;;4.15;3.58;;;21.90;36.10;;;;;;5121156;28;20044;-42
2022/04/23 00:05:28;;;;;;;4.10;3.70;;;22.00;36.10;;;;;;5120665;28;20016;-39
2022/04/23 00:07:54;;;;;;;4.40;3.50;;;22.00;36.10;;;;;;5120480;28;20016;-39
2022/04/23 00:10:22;;;;;;;3.83;3.42;;;21.90;36.10;;;;;;5120195;28;20018;-39
2022/04/23 00:12:48;;;;;;;4.15;3.60;;;21.90;36.20;;;;;;5119279;28;20099;-39
2022/04/23 00:15:15;;;;;;;5.65;3.80;;;21.90;36.20;;;;;;5118301;28;20008;-38
2022/04/23 00:17:43;;;;;;;3.55;3.22;;;21.90;36.20;;;;;;5121713;28;20019;-40
2022/04/23 00:20:12;;;;;;;4.53;3.80;;;21.90;36.20;;;;;;5120504;28;20040;-40
2022/04/23 00:22:38;;;;;;;4.10;3.70;;;21.90;36.30;;;;;;5120536;28;20383;-39
2022/04/23 00:25:07;;;;;;;3.80;3.35;;;21.90;36.20;;;;;;5119778;28;20019;-39
2022/04/23 00:27:33;;;;;;;4.55;3.83;;;21.90;36.20;;;;;;5120669;27;20039;-39
2022/04/23 00:29:59;;;;;;;4.82;4.00;;;21.90;36.20;;;;;;5119938;28;20090;-39
2022/04/23 00:32:25;;;;;;;4.70;3.90;;;21.90;36.20;;;;;;5120377;28;20055;-42
2022/04/23 00:34:52;;;;;;;4.50;4.03;;;21.90;36.20;;;;;;5119471;28;20020;-39
2022/04/23 00:37:19;;;;;;;4.82;4.00;;;21.90;36.20;;;;;;5119572;28;20023;-39
2022/04/23 00:39:46;;;;;;;4.07;3.67;;;21.90;36.20;;;;;;5120058;28;20027;-42
2022/04/23 00:42:12;;;;;;;5.55;3.90;;;21.90;36.30;;;;;;5120763;28;20107;-41
2022/04/23 00:44:38;;;;;;;4.32;3.50;;;21.90;36.30;;;;;;5121144;28;20019;-40
2022/04/23 00:47:05;;;;;;;4.60;3.45;;;21.80;36.30;;;;;;5121059;28;20016;-39
2022/04/23 00:49:33;;;;;;;4.53;3.80;;;21.90;36.30;;;;;;5122520;28;20020;-39
2022/04/23 00:51:59;;;;;;;4.15;3.70;;;21.90;36.40;;;;;;5122591;28;20026;-42
2022/04/23 00:54:25;;;;;;;4.22;3.83;;;21.80;36.30;;;;;;5119768;28;20057;-39
2022/04/23 00:56:53;;;;;;;4.78;3.50;;;21.90;36.40;;;;;;5118545;28;20095;-38
2022/04/23 00:59:19;;;;;;;3.97;3.50;;;21.80;36.40;;;;;;5119852;28;20012;-39
2022/04/23 01:01:45;;;;;;;5.60;3.70;;;21.90;36.50;;;;;;5118971;28;20020;-45
2022/04/23 01:04:13;;;;;;;3.72;3.35;;;21.80;36.40;;;;;;5120113;28;20030;-39
2022/04/23 01:06:38;;;;;;;4.18;3.60;;;21.80;36.40;;;;;;5120410;28;20016;-40
2022/04/23 01:09:07;;;;;;;4.57;3.72;;;21.80;36.40;;;;;;5121017;28;20091;-38
2022/04/23 01:11:33;;;;;;;4.15;3.72;;;21.80;36.40;;;;;;5120265;28;20093;-39
2022/04/23 01:14:03;;;;;;;4.97;3.90;;;21.80;36.40;;;;;;5119182;28;20027;-38
2022/04/23 01:16:29;;;;;;;4.50;4.03;;;21.80;36.40;;;;;;5118776;28;20023;-42
2022/04/23 01:18:55;;;;;;;4.93;3.67;;;21.80;36.40;;;;;;5118360;28;20538;-39
2022/04/23 01:21:22;;;;;;;4.20;3.80;;;21.80;36.40;;;;;;5117607;28;20398;-38
2022/04/23 01:23:53;;;;;;;4.68;3.72;;;21.80;36.50;;;;;;5117516;28;20019;-39
2022/04/23 01:26:27;;;;;;;4.57;3.75;;;21.80;36.50;;;;;;5119250;28;20428;-40
2022/04/23 01:28:52;;;;;;;4.85;3.70;;;21.80;36.50;;;;;;5118903;28;20095;-38
2022/04/23 01:31:18;;;;;;;4.13;3.33;;;21.80;36.50;;;;;;5118157;28;20016;-40
2022/04/23 01:33:45;;;;;;;4.40;3.58;;;21.80;36.50;;;;;;5117945;28;20026;-39
2022/04/23 01:36:13;;;;;;;4.68;3.80;;;21.80;36.50;;;;;;5118272;28;20069;-38
2022/04/23 01:38:40;;;;;;;4.65;4.10;;;21.80;36.50;;;;;;5118268;28;20099;-38
2022/04/23 01:41:06;;;;;;;5.75;3.88;;;21.80;36.50;;;;;;5117550;28;20055;-39
2022/04/23 01:43:32;;;;;;;4.60;3.67;;;21.80;36.60;;;;;;5119674;28;20038;-40
2022/04/23 01:45:58;;;;;;;4.72;3.90;;;21.80;36.60;;;;;;5120425;28;20047;-43
2022/04/23 01:48:25;;;;;;;4.60;3.60;;;21.80;36.60;;;;;;5119131;28;20031;-39
2022/04/23 01:50:53;;;;;;;4.10;3.67;;;21.80;36.60;;;;;;5119742;28;20026;-40
2022/04/23 01:53:19;;;;;;;4.30;3.90;;;21.70;36.60;;;;;;5118502;28;20065;-38
2022/04/23 01:55:45;;;;;;;4.65;4.15;;;21.70;36.60;;;;;;5119280;28;20027;-39
2022/04/23 01:58:12;;;;;;;4.07;3.67;;;21.70;36.60;;;;;;5117085;28;20016;-40
2022/04/23 02:00:39;;;;;;;4.40;4.00;;;21.80;36.70;;;;;;5118570;28;20080;-38
2022/04/23 02:03:06;;;;;;;4.28;3.83;;;21.70;36.70;;;;;;5117238;28;20482;-39
2022/04/23 02:05:32;;;;;;;4.72;3.72;;;21.80;36.70;;;;;;5118743;28;20008;-40
2022/04/23 02:07:58;;;;;;;4.32;3.83;;;21.70;36.70;;;;;;5118924;28;20072;-38
2022/04/23 02:10:25;;;;;;;5.25;3.78;;;21.70;36.80;;;;;;5118989;28;20071;-39
2022/04/23 02:12:51;;;;;;;5.13;3.80;;;21.70;36.70;;;;;;5118684;28;20042;-39
2022/04/23 02:15:17;;;;;;;4.72;3.80;;;21.70;36.70;;;;;;5120158;28;20012;-39
2022/04/23 02:17:44;;;;;;;6.22;4.20;;;21.70;36.80;;;;;;5118638;28;20079;-39
2022/04/23 02:20:12;;;;;;;4.13;3.72;;;21.70;36.80;;;;;;5129060;27;20045;-38
2022/04/23 02:22:38;;;;;;;4.63;3.85;;;21.70;36.80;;;;;;5141092;27;20049;-39
2022/04/23 02:25:05;;;;;;;4.30;3.90;;;21.70;36.90;;;;;;5159219;27;20019;-40
2022/04/23 02:27:51;;;;;;;4.28;3.88;;;21.70;36.80;;;;;;5158415;27;20010;-38
2022/04/23 02:30:19;;;;;;;5.15;3.95;;;21.70;36.90;;;;;;5159462;27;20091;-41
2022/04/23 02:32:46;;;;;;;4.35;3.90;;;21.70;36.90;;;;;;5158655;27;20011;-39
2022/04/23 02:35:12;;;;;;;4.90;4.38;;;21.70;36.90;;;;;;5139690;27;20556;-39
2022/04/23 02:37:37;;;;;;;5.53;4.13;;;21.70;36.90;;;;;;5158649;27;20038;-41
2022/04/23 02:40:07;;;;;;;5.88;4.03;;;21.70;37.00;;;;;;5158631;27;20011;-40
2022/04/23 02:42:37;;;;;;;4.55;4.07;;;21.70;37.00;;;;;;5157953;27;20033;-39
2022/04/23 02:45:04;;;;;;;4.75;4.03;;;21.70;37.00;;;;;;5157842;27;20010;-39
2022/04/23 02:47:41;;;;;;;4.95;4.05;;;21.70;37.10;;;;;;5158585;27;20543;-38
2022/04/23 02:50:09;;;;;;;5.82;4.28;;;21.70;37.10;;;;;;5143121;27;20491;-39
2022/04/23 02:52:36;;;;;;;4.20;3.80;;;21.60;37.10;;;;;;5161419;27;20468;-39
2022/04/23 02:55:02;;;;;;;4.30;3.90;;;21.60;37.10;;;;;;5160985;27;20007;-40
2022/04/23 02:57:28;;;;;;;4.80;4.10;;;21.60;37.10;;;;;;5159122;27;20019;-40
2022/04/23 02:59:54;;;;;;;4.43;4.03;;;21.60;37.10;;;;;;5141126;27;20034;-42
2022/04/23 03:02:20;;;;;;;6.40;4.32;;;21.60;37.20;;;;;;5160837;27;20044;-41
2022/04/23 03:04:46;;;;;;;4.28;3.88;;;21.60;37.20;;;;;;5160370;27;20414;-43
2022/04/23 03:07:13;;;;;;;4.25;3.75;;;21.60;37.20;;;;;;5160752;27;20086;-40
2022/04/23 03:09:39;;;;;;;5.20;4.00;;;21.60;37.20;;;;;;5160900;27;20416;-41
2022/04/23 03:12:06;;;;;;;5.32;4.40;;;21.60;37.30;;;;;;5159415;27;20026;-44
2022/04/23 03:14:35;;;;;;;4.53;4.13;;;21.60;37.30;;;;;;5157092;27;20026;-44
2022/04/23 03:17:01;;;;;;;4.60;4.13;;;21.60;37.30;;;;;;5157485;27;20030;-41
2022/04/23 03:19:27;;;;;;;5.18;4.25;;;21.60;37.40;;;;;;5157726;27;20508;-43
2022/04/23 03:21:54;;;;;;;4.88;4.43;;;21.50;37.30;;;;;;5156754;27;20055;-41
2022/04/23 03:24:20;;;;;;;5.07;4.22;;;21.50;37.30;;;;;;5158102;27;20022;-41
2022/04/23 03:26:46;;;;;;;6.38;4.25;;;21.60;37.40;;;;;;5142902;27;20011;-43
2022/04/23 03:29:11;;;;;;;4.88;4.18;;;21.60;37.40;;;;;;5143674;27;20010;-40
2022/04/23 03:31:37;;;;;;;5.25;4.47;;;21.50;37.50;;;;;;5162104;27;20039;-40
2022/04/23 03:34:03;;;;;;;5.25;4.05;;;21.50;37.40;;;;;;5161248;27;20018;-40
2022/04/23 03:36:29;;;;;;;6.53;4.20;;;21.50;37.50;;;;;;5161536;27;20465;-41
2022/04/23 03:38:55;;;;;;;5.65;4.57;;;21.50;37.50;;;;;;5161445;27;20011;-42
2022/04/23 03:41:23;;;;;;;5.15;4.05;;;21.50;37.50;;;;;;5161757;27;20037;-42
2022/04/23 03:43:48;;;;;;;5.05;4.50;;;21.50;37.60;;;;;;5162796;27;20011;-39
2022/04/23 03:46:17;;;;;;;4.90;4.20;;;21.50;37.60;;;;;;5161682;27;20026;-42
2022/04/23 03:48:44;;;;;;;5.50;4.30;;;21.50;37.60;;;;;;5160690;27;20035;-39
2022/04/23 03:51:11;;;;;;;5.05;4.07;;;21.50;37.60;;;;;;5144254;27;20015;-43
2022/04/23 03:53:37;;;;;;;4.97;4.40;;;21.50;37.60;;;;;;5164568;27;20015;-40
2022/04/23 03:56:03;;;;;;;4.72;4.25;;;21.50;37.60;;;;;;5164522;27;20023;-43
2022/04/23 03:58:30;;;;;;;5.47;4.45;;;21.50;37.70;;;;;;5162522;27;20013;-41
2022/04/23 04:00:56;;;;;;;5.30;4.53;;;21.50;37.70;;;;;;5160918;27;20469;-39
2022/04/23 04:03:23;;;;;;;4.82;4.32;;;21.50;37.70;;;;;;5124858;27;20015;-42
2022/04/23 04:05:49;;;;;;;5.13;4.25;;;21.50;37.70;;;;;;5142234;27;20013;-40
2022/04/23 04:08:16;;;;;;;5.47;4.30;;;21.50;37.70;;;;;;5159688;27;20018;-39
2022/04/23 04:10:43;;;;;;;5.25;4.65;;;21.50;37.80;;;;;;5159328;27;20033;-40
2022/04/23 04:13:09;;;;;;;5.90;4.40;;;21.50;37.80;;;;;;5158740;27;20011;-42
2022/04/23 04:15:35;;;;;;;4.57;4.18;;;21.40;37.80;;;;;;5158053;27;20102;-39
2022/04/23 04:18:01;;;;;;;5.20;4.70;;;21.50;37.80;;;;;;5139824;27;20064;-40
2022/04/23 04:20:29;;;;;;;6.07;4.50;;;21.40;37.80;;;;;;5158397;27;20035;-40
2022/04/23 04:22:55;;;;;;;5.25;4.40;;;21.50;37.80;;;;;;5123102;27;20031;-40
2022/04/23 04:25:21;;;;;;;5.90;4.65;;;21.40;37.70;;;;;;5158461;27;20018;-39
2022/04/23 04:27:47;;;;;;;5.55;4.72;;;21.40;37.80;;;;;;5139972;27;20388;-40
2022/04/23 04:30:13;;;;;;;5.22;4.60;;;21.40;37.80;;;;;;5140529;27;20003;-39
2022/04/23 04:32:41;;;;;;;5.68;3.95;;;21.50;37.80;;;;;;5158836;27;20022;-40
2022/04/23 04:35:07;;;;;;;5.38;4.50;;;21.40;37.80;;;;;;5157919;27;20029;-40
2022/04/23 04:37:34;;;;;;;5.68;4.68;;;21.40;37.80;;;;;;5159150;27;20045;-40
2022/04/23 04:40:00;;;;;;;5.00;4.20;;;21.40;37.80;;;;;;5160258;27;20007;-43
2022/04/23 04:42:27;;;;;;;6.07;4.50;;;21.40;37.80;;;;;;5160272;27;20030;-42
2022/04/23 04:44:57;;;;;;;5.47;4.38;;;21.40;37.70;;;;;;5159968;27;20010;-40
2022/04/23 04:47:22;;;;;;;5.63;4.80;;;21.40;37.80;;;;;;5159125;27;20095;-39
2022/04/23 04:49:49;;;;;;;4.80;4.32;;;21.40;37.80;;;;;;5158452;27;20035;-40
2022/04/23 04:52:15;;;;;;;5.80;4.50;;;21.40;37.80;;;;;;5158717;27;20015;-39
2022/04/23 04:54:41;;;;;;;5.20;4.70;;;21.50;37.70;;;;;;5140090;27;20507;-39
2022/04/23 04:57:08;;;;;;;5.40;4.28;;;21.50;37.70;;;;;;5158707;27;20042;-40
2022/04/23 04:59:37;;;;;;;5.88;4.40;;;21.50;37.60;;;;;;5139995;27;20015;-40
2022/04/23 05:02:03;;;;;;;5.03;4.50;;;21.50;37.60;;;;;;5157785;27;20509;-41
2022/04/23 05:04:29;;;;;;;5.25;4.22;;;21.50;37.70;;;;;;5158029;27;20090;-39
2022/04/23 05:06:55;;;;;;;4.90;4.40;;;21.50;37.70;;;;;;5138917;27;20444;-40
2022/04/23 05:09:21;;;;;;;5.88;4.55;;;21.50;37.80;;;;;;5157793;27;20015;-40
2022/04/23 05:11:47;;;;;;;4.88;4.28;;;21.40;37.60;;;;;;5139145;27;20029;-40
2022/04/23 05:14:14;;;;;;;5.53;4.65;;;21.40;37.70;;;;;;5157699;27;20023;-40
2022/04/23 05:16:39;;;;;;;6.47;4.60;;;21.40;37.80;;;;;;5138906;27;20034;-39
2022/04/23 05:19:05;;;;;;;5.07;4.45;;;21.40;37.80;;;;;;5157328;27;20500;-39
2022/04/23 05:21:31;;;;;;;4.75;4.25;;;21.40;37.70;;;;;;5138176;27;20564;-40
2022/04/23 05:23:58;;;;;;;5.25;4.30;;;21.50;37.70;;;;;;5157677;27;20025;-39
2022/04/23 05:26:24;;;;;;;4.97;4.35;;;21.40;37.70;;;;;;5139665;27;20372;-40
2022/04/23 05:28:51;;;;;;;5.28;4.78;;;21.40;37.60;;;;;;5158601;27;20014;-41
2022/04/23 05:31:17;;;;;;;5.00;4.50;;;21.40;37.70;;;;;;5140981;27;20041;-40
2022/04/23 05:33:43;;;;;;;4.28;3.88;;;21.40;37.70;;;;;;5139784;27;20396;-40
2022/04/23 05:36:09;;;;;;;4.97;4.47;;;21.40;37.70;;;;;;5158972;27;20014;-42
2022/04/23 05:38:35;;;;;;;6.57;4.63;;;21.40;37.70;;;;;;5158905;27;20019;-40
2022/04/23 05:41:01;;;;;;;4.95;4.22;;;21.40;37.70;;;;;;5140452;27;20030;-40
2022/04/23 05:43:27;;;;;;;5.10;4.60;;;21.40;37.70;;;;;;5158624;27;20022;-40
2022/04/23 05:45:52;;;;;;;5.20;4.38;;;21.40;37.70;;;;;;5121948;27;20026;-40
2022/04/23 05:48:18;;;;;;;5.10;4.40;;;21.50;37.70;;;;;;5138595;27;20551;-40
2022/04/23 05:50:44;;;;;;;5.03;4.53;;;21.50;37.60;;;;;;5121547;27;20026;-40
2022/04/23 05:53:11;;;;;;;6.03;4.20;;;21.50;37.60;;;;;;5156633;27;20023;-41
2022/04/23 05:55:36;;;;;;;4.95;4.45;;;21.50;37.60;;;;;;5156255;27;20042;-40
2022/04/23 05:58:02;;;;;;;5.93;4.72;;;21.50;37.60;;;;;;5156555;27;20034;-40
2022/04/23 06:00:28;;;;;;;6.32;4.55;;;21.50;37.50;;;;;;5156390;27;20027;-39
2022/04/23 06:02:54;;;;;;;5.03;4.40;;;21.50;37.50;;;;;;5137401;27;20031;-40
2022/04/23 06:05:20;;;;;;;5.10;4.43;;;21.50;37.50;;;;;;5120407;27;20019;-41
2022/04/23 06:07:46;;;;;;;4.63;4.10;;;21.60;37.40;;;;;;5156185;27;20015;-40
2022/04/23 06:10:12;;;;;;;5.45;4.15;;;21.60;37.30;;;;;;5156102;27;20023;-41
2022/04/23 06:12:37;;;;;;;6.50;4.38;;;21.70;37.10;;;;;;5156484;27;20015;-40
2022/04/23 06:15:06;;;;;;;4.80;4.30;;;21.80;37.00;;;;;;5120940;27;20476;-39
2022/04/23 06:17:33;;;;;;;5.57;4.22;;;21.80;36.80;;;;;;5156245;27;20105;-38
2022/04/23 06:19:59;;;;;;;4.90;4.35;;;22.00;37.30;;;;;;5129519;27;20402;-39
2022/04/23 06:22:26;;;;;;;4.50;4.00;;;22.10;36.60;;;;;;5113364;28;20118;-39
2022/04/23 06:24:51;;;;;;;5.68;4.13;;;22.10;36.40;;;;;;5114256;28;20039;-40
2022/04/23 06:27:18;;;;;;;4.78;4.25;;;22.20;36.10;;;;;;5113432;28;20012;-39
2022/04/23 06:29:44;;;;;;;4.95;4.00;;;22.40;36.00;;;;;;5115451;28;20082;-39
2022/04/23 06:32:10;;;;;;;4.47;4.07;;;22.60;35.80;;;;;;5113804;28;20449;-40
2022/04/23 06:34:37;;;;;;;4.45;4.05;;;22.60;35.50;;;;;;5115433;28;20026;-39
2022/04/23 06:37:08;;;;;;;4.68;3.83;;;22.80;35.30;;;;;;5113277;28;20012;-38
2022/04/23 06:39:35;;;;;;;4.38;3.90;;;22.90;35.10;;;;;;5113580;28;20092;-41
2022/04/23 06:42:00;;;;;;;4.82;4.15;;;22.90;34.80;;;;;;5113490;28;20028;-37
2022/04/23 06:44:26;;;;;;;5.22;4.00;;;23.10;34.70;;;;;;5114321;28;20027;-37
2022/04/23 06:46:52;;;;;;;3.80;3.50;;;23.20;34.50;;;;;;5114378;28;20016;-38
2022/04/23 06:49:18;;;;;;;4.07;3.67;;;23.30;34.30;;;;;;5113387;28;20016;-37
2022/04/23 06:51:44;;;;;;;4.20;3.70;;;23.40;34.10;;;;;;5114987;28;20488;-38
2022/04/23 06:54:10;;;;;;;4.40;4.00;;;23.50;34.00;;;;;;5114872;28;20019;-37
2022/04/23 06:56:37;;;;;;;5.47;4.25;;;23.60;33.70;;;;;;5114533;28;20026;-37
2022/04/23 06:59:04;;;;;;;3.75;3.45;;;23.70;33.60;;;;;;5116867;28;20094;-37
2022/04/23 07:01:29;;;;;;;3.97;3.58;;;23.90;33.50;;;;;;5117171;28;20032;-38
2022/04/23 07:03:55;;;;;;;4.53;3.65;;;24.00;33.20;;;;;;5117216;28;20023;-38
2022/04/23 07:06:21;;;;;;;4.00;3.60;;;24.10;33.20;;;;;;5118670;28;20115;-38
2022/04/23 07:08:47;;;;;;;3.55;3.25;;;24.20;32.90;;;;;;5100255;28;20478;-36
2022/04/23 07:11:12;;;;;;;4.38;3.35;;;24.20;32.70;;;;;;5118407;28;20023;-37
2022/04/23 07:13:38;;;;;;;4.18;3.45;;;24.40;32.60;;;;;;5116614;28;20378;-38
2022/04/23 07:16:05;;;;;;;7.05;4.22;;;24.40;32.50;;;;;;5118273;28;20478;-39
2022/04/23 07:18:32;;;;;;;4.03;3.63;;;24.50;32.40;;;;;;5117855;28;20043;-37
2022/04/23 07:20:58;;;;;;;3.97;3.58;;;24.60;32.20;;;;;;5141927;27;20045;-35
2022/04/23 07:26:10;;;;;;;3.67;3.38;;;24.80;31.90;;;;;;5158852;27;20387;-37
2022/04/23 07:28:37;;;;;;;4.00;3.60;;;24.80;31.70;;;;;;5159202;27;20460;-38
2022/04/23 07:31:03;;;;;;;3.85;3.40;;;24.90;31.70;;;;;;5158930;27;20026;-36
2022/04/23 07:38:57;;;;;;;4.45;3.45;;;25.10;31.40;;;;;;5158643;27;20034;-37
2022/04/23 07:41:24;;;;;;;4.18;3.40;;;25.20;31.30;;;;;;5123556;27;20035;-38
2022/04/23 07:43:49;;;;;;;5.03;3.35;;;25.20;31.20;;;;;;5159822;27;20097;-38
2022/04/23 07:46:15;;;;;;;3.97;3.35;;;25.30;31.20;;;;;;5123360;27;20090;-38
2022/04/23 07:48:41;;;;;;;4.03;3.55;;;25.40;31.00;;;;;;5124489;27;20105;-38
2022/04/23 07:51:06;;;;;;;4.82;3.78;;;25.40;31.00;;;;;;5141083;27;20022;-37
2022/04/23 07:53:32;;;;;;;4.05;3.67;;;25.40;30.90;;;;;;5140106;27;20015;-38
2022/04/23 07:55:59;;;;;;;4.07;3.40;;;25.50;30.90;;;;;;5140329;27;20463;-38
2022/04/23 07:58:24;;;;;;;4.50;3.60;;;25.60;30.80;;;;;;5159495;27;20068;-39
2022/04/23 08:00:50;;;;;;;6.00;3.30;;;25.60;30.80;;;;;;5140431;27;20029;-38
2022/04/23 08:03:16;;;;;;;4.78;3.47;;;25.60;30.70;;;;;;5158479;27;20014;-38
2022/04/23 08:05:42;;;;;;;5.78;3.95;;;25.60;30.80;;;;;;5158568;27;20015;-40
2022/04/23 08:08:08;;;;;;;5.07;4.00;;;25.60;30.70;;;;;;5140167;27;20023;-38
2022/04/23 08:10:34;;;;;;;4.20;3.63;;;25.70;30.70;;;;;;5139220;27;20052;-38
2022/04/23 08:13:00;;;;;;;3.83;3.33;;;25.70;30.60;;;;;;5159039;27;20010;-39
2022/04/23 08:15:27;;;;;;;5.53;3.47;;;25.80;30.60;;;;;;5159296;27;20031;-38
2022/04/23 08:17:55;;;;;;;4.40;3.70;;;25.80;30.60;;;;;;5159029;27;20011;-38
2022/04/23 08:20:24;;;;;;;4.07;3.38;;;25.80;30.50;;;;;;5140951;27;20040;-38
2022/04/23 08:22:50;;;;;;;3.97;3.63;;;25.80;30.50;;;;;;5159663;27;20484;-38
2022/04/23 08:25:16;;;;;;;5.60;3.55;;;25.90;30.50;;;;;;5160129;27;20018;-39
2022/04/23 08:30:34;;;;;;;4.10;3.70;;;25.90;30.50;;;;;;5124169;27;20011;-38
2022/04/23 08:30:41;;;;;;;5.53;3.70;;;25.90;30.50;;;;;;5159245;27;20029;-38
2022/04/23 08:33:07;;;;;;;4.13;3.67;;;25.90;30.50;;;;;;5160076;27;20343;-38
2022/04/23 08:35:34;;;;;;;4.95;3.65;;;26.00;30.40;;;;;;5159876;27;20007;-39
2022/04/23 08:38:00;;;;;;;4.03;3.45;;;26.00;30.40;;;;;;5159228;27;20011;-40
2022/04/23 08:40:29;;;;;;;4.88;3.58;;;26.00;30.40;;;;;;5123431;27;20079;-38
2022/04/23 08:42:56;;;;;;;4.77;3.53;;;26.10;30.30;;;;;;5158983;27;20046;-38
2022/04/23 08:45:22;;;;;;;4.20;3.70;;;26.10;30.40;;;;;;5158424;27;20294;-38
2022/04/23 08:47:48;;;;;;;4.93;3.58;;;26.00;30.30;;;;;;5157539;27;20484;-36
2022/04/23 08:50:14;;;;;;;5.60;3.80;;;26.10;30.30;;;;;;5157908;27;20006;-37
2022/04/23 08:52:42;;;;;;;4.47;3.20;;;26.10;30.50;;;;;;5138949;27;20007;-37
2022/04/23 08:55:08;;;;;;;7.47;4.05;;;26.10;30.20;;;;;;5157636;27;20479;-37
2022/04/23 08:57:36;;;;;;;4.32;3.65;;;26.20;30.30;;;;;;5157487;27;20495;-38
2022/04/23 09:00:04;;;;;;;3.80;3.40;;;26.20;30.20;;;;;;5139489;27;20021;-37
2022/04/23 09:02:31;;;;;;;5.75;3.90;;;26.20;30.10;;;;;;5140436;27;20023;-38
2022/04/23 09:04:57;;;;;;;4.53;3.70;;;26.30;30.10;;;;;;5123938;27;20023;-39
2022/04/23 09:07:24;;;;;;;4.22;3.78;;;26.30;30.20;;;;;;5159309;27;20029;-38
2022/04/23 09:09:52;;;;;;;4.05;3.65;;;26.30;30.20;;;;;;5159167;27;20019;-38
2022/04/23 09:12:19;;;;;;;4.00;3.60;;;26.30;30.20;;;;;;5140499;27;20011;-37
2022/04/23 09:14:45;;;;;;;4.30;3.50;;;26.30;30.20;;;;;;5140112;27;20066;-37
2022/04/23 09:25:31;;;;;;;4.75;3.58;;;26.30;30.20;;;;;;5142439;27;20083;-37
2022/04/23 09:28:15;;;;;;;4.25;3.60;;;26.30;30.10;;;;;;5157938;27;20011;-38
2022/04/23 09:30:42;;;;;;;4.00;3.60;;;26.40;30.20;;;;;;5158516;27;20059;-37
2022/04/23 09:33:08;;;;;;;5.15;3.70;;;26.30;30.10;;;;;;5158944;27;20030;-38
2022/04/23 09:35:34;;;;;;;4.15;3.70;;;26.40;30.20;;;;;;5157793;27;20006;-40
2022/04/23 09:38:18;;;;;;;5.22;3.70;;;26.40;30.20;;;;;;5157374;27;20017;-37
2022/04/23 09:40:51;;;;;;;4.22;3.58;;;26.40;30.20;;;;;;5139782;27;20007;-38
2022/04/23 09:43:17;;;;;;;5.07;4.07;;;26.40;30.20;;;;;;5140729;27;20094;-38
2022/04/23 09:45:43;;;;;;;4.25;3.80;;;26.40;30.30;;;;;;5105300;27;20023;-38
2022/04/23 09:48:12;;;;;;;5.03;3.95;;;26.40;30.20;;;;;;5139300;27;20040;-37
2022/04/23 09:50:38;;;;;;;5.85;4.03;;;26.40;30.20;;;;;;5158018;27;20118;-38
2022/04/23 09:53:13;;;;;;;5.47;3.85;;;26.40;30.20;;;;;;5139613;27;20460;-39
2022/04/23 09:55:40;;;;;;;4.05;3.63;;;26.40;30.30;;;;;;5157659;27;20019;-38
2022/04/23 09:58:09;;;;;;;4.60;3.75;;;26.40;30.30;;;;;;5157864;27;20477;-39
2022/04/23 10:00:36;;;;;;;4.40;4.00;;;26.30;30.30;;;;;;5157685;27;20028;-38
2022/04/23 10:03:03;;;;;;;4.25;3.75;;;26.40;30.40;;;;;;5156783;27;20284;-38
2022/04/23 10:05:29;;;;;;;4.53;3.83;;;26.40;30.40;;;;;;5156573;27;20015;-38
2022/04/23 10:07:56;;;;;;;5.05;3.85;;;26.30;30.40;;;;;;5156931;27;20059;-38
2022/04/23 10:10:25;;;;;;;4.15;3.75;;;26.30;30.50;;;;;;5157405;27;20014;-37
2022/04/23 10:12:51;;;;;;;4.53;3.90;;;26.30;30.50;;;;;;5157904;27;20021;-38
2022/04/23 10:15:17;;;;;;;5.18;4.45;;;26.30;30.60;;;;;;5157890;27;20010;-37
2022/04/23 10:17:42;;;;;;;4.72;3.60;;;26.20;30.60;;;;;;5124026;27;20047;-37
2022/04/23 10:20:11;;;;;;;3.97;3.58;;;26.20;30.60;;;;;;5140444;27;20041;-38
2022/04/23 10:23:04;;;;;;;4.60;3.90;;;26.20;30.70;;;;;;5141797;27;20038;-38
2022/04/23 10:26:04;;;;;;;4.38;3.97;;;26.20;30.70;;;;;;5157029;27;20002;-38
2022/04/23 10:28:31;;;;;;;4.32;3.92;;;26.20;30.80;;;;;;5108779;27;20034;-38
2022/04/23 10:31:16;;;;;;;5.30;3.88;;;26.20;30.90;;;;;;5137360;27;20013;-37
2022/04/23 10:33:46;;;;;;;4.95;4.40;;;26.10;30.90;;;;;;5155528;27;20079;-37
2022/04/23 10:36:20;;;;;;;4.13;3.72;;;26.10;31.00;;;;;;5138660;27;20030;-38
2022/04/23 10:38:53;;;;;;;4.70;3.65;;;26.10;31.00;;;;;;5156154;27;20030;-37
2022/04/23 10:41:23;;;;;;;4.50;3.60;;;26.00;31.10;;;;;;5156815;27;20075;-38
2022/04/23 10:43:59;;;;;;;4.57;3.90;;;26.00;31.20;;;;;;5138423;27;20038;-39
2022/04/23 10:46:36;;;;;;;4.40;4.00;;;26.00;31.20;;;;;;5157491;27;20544;-38
2022/04/23 10:49:16;;;;;;;6.10;3.80;;;26.00;31.30;;;;;;5157773;27;20061;-39
2022/04/23 10:51:47;;;;;;;5.85;3.80;;;26.00;31.30;;;;;;5157191;27;20007;-37
2022/04/23 10:54:16;;;;;;;4.60;3.75;;;25.90;31.40;;;;;;5157627;27;20087;-40
2022/04/23 10:56:42;;;;;;;4.45;4.03;;;25.90;31.40;;;;;;5156404;27;20023;-37
2022/04/23 10:59:46;;;;;;;4.57;4.18;;;25.90;31.50;;;;;;5156386;27;20022;-38
2022/04/23 11:02:21;;;;;;;4.38;3.97;;;25.90;31.50;;;;;;5156351;27;20034;-38
2022/04/23 11:13:48;;;;;;;5.70;4.20;;;25.70;31.80;;;;;;5155132;27;20162;-38
2022/04/23 11:16:16;;;;;;;4.82;4.03;;;25.60;31.90;;;;;;5154804;27;20019;-37
2022/04/23 11:18:42;;;;;;;5.40;4.25;;;25.60;32.00;;;;;;5155099;27;20010;-40
2022/04/23 11:21:18;;;;;;;5.68;3.85;;;25.50;32.00;;;;;;5155110;27;20039;-41
2022/04/23 11:23:47;;;;;;;4.22;3.83;;;25.50;32.10;;;;;;5136855;27;20011;-44
2022/04/23 11:26:18;;;;;;;4.75;3.80;;;25.50;32.20;;;;;;5156981;27;20015;-40
2022/04/23 11:28:44;;;;;;;4.43;4.03;;;25.40;32.20;;;;;;5138601;27;20464;-42
2022/04/23 11:31:20;;;;;;;5.45;3.97;;;25.40;32.30;;;;;;5156692;27;20011;-40
2022/04/23 11:33:59;;;;;;;5.53;4.60;;;25.40;32.40;;;;;;5156869;27;20155;-43
2022/04/23 11:36:29;;;;;;;4.45;3.90;;;25.30;32.40;;;;;;5156438;27;20019;-40
2022/04/23 11:38:59;;;;;;;4.30;3.90;;;25.30;32.50;;;;;;5156698;27;20018;-41
2022/04/23 11:41:48;;;;;;;4.30;3.90;;;25.20;32.50;;;;;;5156854;27;20027;-40
2022/04/23 11:47:08;;;;;;;4.65;4.20;;;25.20;32.80;;;;;;5145054;27;20492;-40
2022/04/23 11:49:34;;;;;;;4.32;3.70;;;25.10;32.70;;;;;;5159896;27;20007;-45
2022/04/23 11:52:13;;;;;;;4.15;3.50;;;25.10;32.80;;;;;;5160023;27;20019;-41
2022/04/23 11:54:43;;;;;;;4.82;4.13;;;25.00;32.90;;;;;;5140683;27;20487;-39
2022/04/23 11:57:10;;;;;;;;;;;25.00;33.00;;;;;;5160127;27;20018;-42
2022/04/23 11:59:47;;;;;;;5.55;4.00;;;25.00;33.10;;;;;;5140668;27;20349;-42
2022/04/23 12:02:21;;;;;;;4.40;3.90;;;24.90;33.10;;;;;;5159382;27;20026;-42
2022/04/23 12:04:49;;;;;;;5.40;4.35;;;24.90;33.20;;;;;;5159627;27;20015;-39
2022/04/23 12:07:15;;;;;;;6.00;3.90;;;24.90;33.30;;;;;;5160352;27;20014;-43
2022/04/23 12:09:57;;;;;;;4.82;4.00;;;24.80;33.30;;;;;;5141257;27;20460;-44
2022/04/23 12:12:31;;;;;;;5.25;4.03;;;24.80;33.40;;;;;;5140961;27;20050;-42
2022/04/23 12:15:09;;;;;;;4.80;3.95;;;24.80;33.40;;;;;;5159066;27;20094;-42
2022/04/23 12:17:53;;;;;;;4.32;3.92;;;24.80;33.50;;;;;;5160598;27;20014;-46
2022/04/23 12:20:27;;;;;;;5.50;3.90;;;24.80;33.50;;;;;;5160586;27;20046;-41
2022/04/23 12:23:00;;;;;;;4.05;3.63;;;24.80;33.50;;;;;;5161111;27;20029;-47
2022/04/23 12:25:28;;;;;;;6.20;3.80;;;24.80;33.60;;;;;;5160087;27;20421;-44
2022/04/23 12:27:58;;;;;;;4.60;3.78;;;24.70;33.60;;;;;;5159751;27;20011;-43
2022/04/23 12:42:05;;;;;;;4.32;3.90;;;24.70;33.80;;;;;;5144002;27;20078;-39
2022/04/23 12:44:37;;;;;;;6.25;3.63;;;24.60;33.80;;;;;;5140010;27;20039;-39
2022/04/23 12:47:08;;;;;;;4.82;3.78;;;24.60;33.80;;;;;;5158176;27;20037;-41
2022/04/23 12:49:57;;;;;;;4.20;3.80;;;24.60;34.00;;;;;;5158428;27;20037;-40
2022/04/23 12:52:38;;;;;;;6.80;4.03;;;24.60;34.00;;;;;;5158591;27;20094;-40
2022/04/23 12:55:29;;;;;;;4.28;3.80;;;24.50;34.00;;;;;;5158721;27;20027;-40
2022/04/23 12:58:00;;;;;;;5.05;3.92;;;24.50;34.10;;;;;;5159694;27;20046;-40
2022/04/23 13:00:26;;;;;;;4.63;3.90;;;24.50;34.10;;;;;;5160149;27;20027;-39
2022/04/23 13:02:58;;;;;;;4.00;3.60;;;24.50;34.10;;;;;;5159526;27;20101;-40
2022/04/23 13:05:25;;;;;;;5.85;3.95;;;24.50;34.20;;;;;;5159397;27;20011;-39
2022/04/23 13:10:35;;;;;;;4.75;3.72;;;24.40;34.20;;;;;;5143849;27;20106;-40
2022/04/23 13:13:02;;;;;;;4.32;3.70;;;24.40;34.20;;;;;;5158861;27;20472;-39
2022/04/23 13:15:29;;;;;;;4.00;3.60;;;24.50;34.30;;;;;;5159102;27;20022;-40
2022/04/23 13:17:55;;;;;;;6.97;4.07;;;24.50;34.30;;;;;;5123444;27;20421;-39
2022/04/23 13:20:21;;;;;;;3.90;3.50;;;24.40;34.30;;;;;;5128533;27;20176;-40
2022/04/23 13:22:47;;;;;;;3.92;3.58;;;24.40;34.30;;;;;;5116902;28;20032;-43
2022/04/23 13:25:15;;;;;;;4.43;3.72;;;24.50;34.40;;;;;;5116369;28;20377;-40
2022/04/23 13:27:41;;;;;;;4.40;3.35;;;24.40;34.30;;;;;;5116700;28;20039;-41
2022/04/23 13:30:07;;;;;;;4.38;3.97;;;24.40;34.40;;;;;;5117016;28;20014;-40
2022/04/23 13:32:35;;;;;;;4.50;3.63;;;24.40;34.40;;;;;;5116291;28;20019;-40
2022/04/23 13:35:05;;;;;;;4.18;3.53;;;24.40;34.50;;;;;;5115892;28;20020;-42